Time;durP1;ratioP1;P1;durP2;ratioP2;P2;SDS_P1;SDS_P2;PMS_P1;PMS_P2;Temp;Humidity;BMP_temperature;BMP_pressure;BME280_temperature;BME280_humidity;BME280_pressure;Samples;Min_cycle;Max_cycle;Signal;HPM_P1;HPM_P2
2022/09/13 00:01:00;;;;;;;2.25;1.33;;;20.60;99.90;;;;;;5054097;28;20060;-68
2022/09/13 00:03:26;;;;;;;3.75;1.45;;;20.70;99.90;;;;;;5053988;28;20527;-64
2022/09/13 00:05:52;;;;;;;1.75;1.25;;;20.70;99.90;;;;;;5053711;28;20155;-64
2022/09/13 00:08:18;;;;;;;4.78;1.50;;;20.70;99.90;;;;;;5054096;28;20040;-64
2022/09/13 00:10:45;;;;;;;1.52;1.30;;;20.50;99.90;;;;;;5054079;28;20041;-64
2022/09/13 00:13:12;;;;;;;1.60;1.40;;;20.50;99.90;;;;;;5053959;28;20120;-64
2022/09/13 00:15:44;;;;;;;2.50;1.60;;;20.30;99.90;;;;;;5054067;28;20045;-64
2022/09/13 00:18:09;;;;;;;2.17;1.50;;;20.40;99.90;;;;;;5054008;28;20064;-68
2022/09/13 00:20:35;;;;;;;3.65;1.63;;;20.30;99.90;;;;;;5053982;28;20526;-64
2022/09/13 00:23:01;;;;;;;2.60;1.52;;;20.20;99.90;;;;;;5053828;28;20036;-64
2022/09/13 00:25:27;;;;;;;2.65;1.45;;;20.00;99.90;;;;;;5053616;28;20045;-65
2022/09/13 00:27:53;;;;;;;3.97;1.40;;;19.90;99.90;;;;;;5053901;28;20068;-65
2022/09/13 00:30:19;;;;;;;2.30;1.50;;;19.90;99.90;;;;;;5053915;28;20106;-68
2022/09/13 00:32:57;;;;;;;7.68;2.22;;;20.00;99.90;;;;;;5053544;28;20060;-64
2022/09/13 00:35:23;;;;;;;1.35;1.17;;;20.00;99.90;;;;;;5053400;28;20056;-65
2022/09/13 00:37:49;;;;;;;1.70;1.48;;;;;;;;;;5053734;28;20083;-64
2022/09/13 00:40:15;;;;;;;3.92;1.65;;;20.30;99.90;;;;;;5053654;28;20057;-64
2022/09/13 00:42:41;;;;;;;4.07;1.60;;;20.40;99.90;;;;;;5053859;28;20037;-69
2022/09/13 00:45:09;;;;;;;3.65;1.60;;;20.50;99.90;;;;;;5053771;28;20064;-65
2022/09/13 00:47:50;;;;;;;3.40;1.67;;;20.50;99.90;;;;;;5053686;28;20040;-63
2022/09/13 00:50:28;;;;;;;2.47;1.75;;;20.40;99.90;;;;;;5053789;28;20044;-68
2022/09/13 00:53:11;;;;;;;2.05;1.23;;;20.40;99.90;;;;;;5055245;28;20455;-64
2022/09/13 00:56:08;;;;;;;3.00;1.67;;;20.10;99.90;;;;;;5057751;28;20040;-68
2022/09/13 00:58:58;;;;;;;3.28;1.30;;;20.10;99.90;;;;;;5043091;28;20057;-64
2022/09/13 01:01:36;;;;;;;2.20;1.57;;;20.10;99.90;;;;;;5057369;28;20055;-64
2022/09/13 01:04:03;;;;;;;2.15;1.58;;;20.00;99.90;;;;;;5057465;28;20055;-64
2022/09/13 01:06:33;;;;;;;3.95;1.83;;;20.00;99.90;;;;;;5057372;28;20037;-65
2022/09/13 01:09:03;;;;;;;3.08;1.80;;;20.30;99.90;;;;;;5057339;28;20123;-65
2022/09/13 01:11:44;;;;;;;3.30;1.75;;;20.30;99.90;;;;;;5057096;28;20033;-64
2022/09/13 01:14:10;;;;;;;;;;;20.40;99.90;;;;;;5057598;28;20033;-65
2022/09/13 01:16:36;;;;;;;2.03;1.60;;;20.40;99.90;;;;;;5057174;28;19909;-64
2022/09/13 01:19:02;;;;;;;2.40;1.80;;;20.40;99.90;;;;;;5057155;28;20423;-64
2022/09/13 01:21:52;;;;;;;4.28;1.85;;;20.30;99.90;;;;;;5056958;28;20059;-65
2022/09/13 01:24:51;;;;;;;7.22;1.77;;;20.20;99.90;;;;;;5057052;28;20068;-64
2022/09/13 01:27:29;;;;;;;6.10;2.40;;;20.10;99.90;;;;;;5057039;28;20166;-64
2022/09/13 01:30:09;;;;;;;2.97;2.10;;;20.00;99.90;;;;;;5056949;28;20388;-64
2022/09/13 01:33:00;;;;;;;2.60;2.17;;;20.00;99.90;;;;;;5056836;28;20448;-64
2022/09/13 01:35:57;;;;;;;2.70;2.22;;;19.90;99.90;;;;;;5056625;28;20099;-63
2022/09/13 01:38:26;;;;;;;3.10;2.30;;;19.80;99.90;;;;;;5056667;28;20033;-68
2022/09/13 01:41:31;;;;;;;3.47;2.63;;;19.70;99.90;;;;;;5056653;28;20049;-64
2022/09/13 01:44:20;;;;;;;4.72;2.67;;;19.70;99.90;;;;;;5056587;28;20043;-64
2022/09/13 01:46:56;;;;;;;5.43;3.45;;;19.70;99.90;;;;;;5056655;28;20047;-64
2022/09/13 01:49:24;;;;;;;4.03;2.92;;;19.70;99.90;;;;;;5056701;28;20154;-67
2022/09/13 01:52:00;;;;;;;4.53;2.90;;;19.60;99.90;;;;;;5056631;28;20037;-67
2022/09/13 01:55:00;;;;;;;4.13;2.80;;;19.60;99.90;;;;;;5056478;28;20037;-64
2022/09/13 01:57:39;;;;;;;3.60;2.63;;;19.60;99.90;;;;;;5056346;28;20040;-64
2022/09/13 02:00:11;;;;;;;4.35;2.78;;;19.60;99.90;;;;;;5056374;28;20036;-64
2022/09/13 02:03:06;;;;;;;3.75;2.85;;;19.60;99.90;;;;;;5056351;28;20556;-65
2022/09/13 02:05:45;;;;;;;4.00;2.80;;;19.60;99.90;;;;;;5056250;28;20037;-64
2022/09/13 02:08:18;;;;;;;3.72;2.65;;;19.60;99.90;;;;;;5056396;28;20185;-63
2022/09/13 02:10:53;;;;;;;4.13;2.95;;;19.60;99.90;;;;;;5056183;28;20519;-64
2022/09/13 02:13:27;;;;;;;4.22;3.22;;;19.50;99.90;;;;;;5056174;28;20075;-64
2022/09/13 02:15:59;;;;;;;4.93;3.67;;;19.60;99.90;;;;;;5055954;28;20044;-64
2022/09/13 02:18:36;;;;;;;4.00;2.88;;;19.60;99.90;;;;;;5055916;28;20033;-63
2022/09/13 02:21:10;;;;;;;4.43;2.97;;;19.50;99.90;;;;;;5055746;28;20049;-64
2022/09/13 02:23:43;;;;;;;5.68;3.47;;;19.50;99.90;;;;;;5055987;28;20484;-64
2022/09/13 02:26:13;;;;;;;6.70;3.58;;;19.50;99.90;;;;;;5055956;28;20047;-64
2022/09/13 02:28:44;;;;;;;4.97;3.05;;;19.50;99.90;;;;;;5056120;28;20399;-67
2022/09/13 02:31:12;;;;;;;4.85;3.45;;;19.50;99.90;;;;;;5055794;28;20032;-64
2022/09/13 02:34:00;;;;;;;8.32;3.45;;;19.50;99.90;;;;;;5055616;28;20047;-67
2022/09/13 02:36:30;;;;;;;5.95;3.42;;;19.60;99.90;;;;;;5052407;28;20040;-64
2022/09/13 02:39:00;;;;;;;3.55;3.22;;;19.50;99.90;;;;;;5040201;28;20166;-64
2022/09/13 02:41:45;;;;;;;4.25;3.00;;;19.50;99.90;;;;;;5033547;28;20130;-64
2022/09/13 02:44:21;;;;;;;5.57;3.40;;;19.40;99.90;;;;;;5046721;28;20033;-68
2022/09/13 02:47:13;;;;;;;5.25;3.33;;;19.30;99.90;;;;;;5055499;28;20040;-67
2022/09/13 02:49:50;;;;;;;7.47;3.58;;;19.30;99.90;;;;;;5055467;28;20044;-67
2022/09/13 02:52:34;;;;;;;4.97;3.00;;;19.20;99.90;;;;;;5055405;28;20037;-64
2022/09/13 02:55:00;;;;;;;4.45;3.38;;;19.30;99.90;;;;;;5055367;28;20036;-67
2022/09/13 02:57:37;;;;;;;3.72;2.97;;;19.40;99.90;;;;;;5055389;28;20045;-64
2022/09/13 03:00:04;;;;;;;4.25;3.38;;;19.30;99.90;;;;;;5055293;28;20554;-64
2022/09/13 03:02:35;;;;;;;5.88;3.63;;;19.30;99.90;;;;;;5055210;28;20040;-64
2022/09/13 03:05:02;;;;;;;5.90;3.58;;;19.30;99.90;;;;;;5055354;28;20041;-67
2022/09/13 03:07:28;;;;;;;4.60;3.10;;;19.30;99.90;;;;;;5055144;28;20100;-67
2022/09/13 03:10:04;;;;;;;4.57;2.67;;;19.30;99.90;;;;;;5055112;28;20117;-65
2022/09/13 03:12:49;;;;;;;3.75;3.17;;;19.20;99.90;;;;;;5054980;28;20181;-67
2022/09/13 03:15:31;;;;;;;5.18;3.70;;;19.20;99.90;;;;;;5054082;28;20053;-64
2022/09/13 03:18:02;;;;;;;5.20;3.45;;;19.30;99.90;;;;;;5054871;28;20116;-66
2022/09/13 03:20:44;;;;;;;5.63;3.63;;;19.40;99.90;;;;;;5054732;28;20052;-65
2022/09/13 03:23:16;;;;;;;5.03;3.65;;;19.40;99.90;;;;;;5054888;28;20500;-65
2022/09/13 03:26:18;;;;;;;5.90;3.78;;;19.40;99.90;;;;;;5054897;28;20086;-68
2022/09/13 03:28:49;;;;;;;8.10;3.35;;;19.40;99.90;;;;;;5051976;28;20118;-64
2022/09/13 03:31:33;;;;;;;5.25;3.65;;;19.40;99.90;;;;;;5054949;28;20068;-64
2022/09/13 03:34:16;;;;;;;4.85;3.60;;;19.30;99.90;;;;;;5054744;28;20041;-65
2022/09/13 03:36:49;;;;;;;7.50;3.80;;;19.30;99.90;;;;;;5054405;28;20508;-64
2022/09/13 03:39:25;;;;;;;5.47;3.67;;;19.20;99.90;;;;;;5054480;28;20047;-64
2022/09/13 03:41:57;;;;;;;7.57;3.55;;;19.20;99.90;;;;;;5054125;28;20522;-67
2022/09/13 03:44:25;;;;;;;4.50;3.25;;;19.20;99.90;;;;;;5054023;28;20082;-64
2022/09/13 03:46:56;;;;;;;6.55;3.65;;;19.20;99.90;;;;;;5053864;28;20119;-64
2022/09/13 03:49:25;;;;;;;5.30;3.33;;;19.20;99.90;;;;;;5053576;28;20091;-67
2022/09/13 03:51:51;;;;;;;6.93;3.10;;;19.10;99.90;;;;;;5054189;28;20044;-65
2022/09/13 03:54:24;;;;;;;6.88;3.90;;;19.20;99.90;;;;;;5053125;28;20170;-64
2022/09/13 03:57:14;;;;;;;5.20;3.38;;;19.20;99.90;;;;;;5054380;28;20576;-65
2022/09/13 03:59:47;;;;;;;7.30;4.00;;;19.10;99.90;;;;;;5054157;28;20439;-66
2022/09/13 04:02:13;;;;;;;6.35;3.15;;;19.20;99.90;;;;;;5053918;28;20056;-64
2022/09/13 04:04:43;;;;;;;4.75;3.70;;;19.20;99.90;;;;;;5054014;28;20041;-64
2022/09/13 04:07:11;;;;;;;12.90;4.53;;;19.20;99.90;;;;;;5054004;28;20040;-64
2022/09/13 04:09:38;;;;;;;4.22;2.90;;;19.10;99.90;;;;;;5053804;28;20037;-65
2022/09/13 04:12:04;;;;;;;5.25;3.20;;;19.10;99.90;;;;;;5054090;28;20037;-64
2022/09/13 04:14:30;;;;;;;5.00;3.45;;;19.10;99.90;;;;;;5054057;28;20052;-65
2022/09/13 04:16:56;;;;;;;5.88;3.60;;;19.10;99.90;;;;;;5053855;28;20045;-64
2022/09/13 04:19:24;;;;;;;7.35;3.53;;;18.90;99.90;;;;;;5053979;28;20049;-65
2022/09/13 04:21:51;;;;;;;7.18;3.22;;;18.70;99.90;;;;;;5053777;28;20140;-68
2022/09/13 04:24:18;;;;;;;6.45;3.20;;;18.70;99.90;;;;;;5053977;28;20510;-64
2022/09/13 04:26:49;;;;;;;4.15;3.00;;;18.70;99.90;;;;;;5053757;28;20045;-64
2022/09/13 04:29:14;;;;;;;;;;;18.70;99.90;;;;;;5054252;28;20399;-64
2022/09/13 04:31:40;;;;;;;6.72;3.72;;;18.70;99.90;;;;;;5053486;28;19912;-66
2022/09/13 04:34:07;;;;;;;3.70;3.13;;;18.70;99.90;;;;;;5067974;28;20131;-64
2022/09/13 04:36:32;;;;;;;5.13;2.88;;;18.50;99.90;;;;;;5059141;28;20091;-65
2022/09/13 04:38:59;;;;;;;5.55;3.22;;;18.30;99.90;;;;;;5063390;28;20068;-68
2022/09/13 04:41:28;;;;;;;4.47;3.17;;;18.50;99.90;;;;;;5055588;28;20045;-64
2022/09/13 04:43:54;;;;;;;5.20;3.55;;;18.60;99.90;;;;;;5049020;28;20383;-64
2022/09/13 04:46:20;;;;;;;3.85;3.08;;;18.70;99.90;;;;;;5052650;28;20408;-65
2022/09/13 04:48:50;;;;;;;5.80;3.25;;;18.80;99.90;;;;;;5053493;28;20033;-65
2022/09/13 04:51:16;;;;;;;8.60;3.20;;;18.80;99.90;;;;;;5053559;28;20040;-64
2022/09/13 04:53:46;;;;;;;4.13;3.22;;;18.80;99.90;;;;;;5053289;28;20531;-68
2022/09/13 04:56:14;;;;;;;4.03;3.28;;;18.70;99.90;;;;;;5052357;28;20041;-64
2022/09/13 04:58:40;;;;;;;5.95;3.22;;;18.80;99.90;;;;;;5052729;28;20037;-65
2022/09/13 05:01:08;;;;;;;4.43;2.83;;;18.80;99.90;;;;;;5052933;28;20048;-64
2022/09/13 05:03:35;;;;;;;5.18;3.83;;;18.60;99.90;;;;;;5053531;28;20076;-64
2022/09/13 05:06:06;;;;;;;5.10;3.42;;;18.50;99.90;;;;;;5051929;28;20040;-65
2022/09/13 05:08:32;;;;;;;9.07;3.80;;;18.40;99.90;;;;;;5053400;28;20040;-65
2022/09/13 05:10:58;;;;;;;5.93;3.45;;;18.50;99.90;;;;;;5051811;28;20037;-64
2022/09/13 05:13:25;;;;;;;7.03;3.28;;;18.60;99.90;;;;;;5050988;28;20116;-64
2022/09/13 05:16:02;;;;;;;3.75;3.28;;;18.50;99.90;;;;;;5051249;28;20040;-67
2022/09/13 05:18:29;;;;;;;4.30;3.00;;;18.60;99.90;;;;;;5032487;28;20088;-67
2022/09/13 05:20:56;;;;;;;4.32;3.30;;;18.60;99.90;;;;;;5033419;28;20045;-65
2022/09/13 05:23:23;;;;;;;9.10;3.03;;;18.70;99.90;;;;;;5033409;28;20033;-64
2022/09/13 05:25:57;;;;;;;4.30;2.92;;;18.70;99.90;;;;;;5033334;28;20037;-66
2022/09/13 05:28:23;;;;;;;8.65;3.08;;;18.70;99.90;;;;;;5033197;28;20043;-65
2022/09/13 05:31:01;;;;;;;4.85;3.22;;;18.70;99.90;;;;;;5033174;28;20095;-65
2022/09/13 05:33:30;;;;;;;5.88;4.22;;;18.70;99.90;;;;;;5032528;28;20120;-66
2022/09/13 05:35:56;;;;;;;5.63;3.45;;;18.70;99.90;;;;;;5033053;28;20526;-64
2022/09/13 05:38:22;;;;;;;7.88;4.07;;;18.80;99.90;;;;;;5032856;28;20404;-65
2022/09/13 05:40:55;;;;;;;11.48;4.03;;;18.70;99.90;;;;;;5036862;28;20052;-67
2022/09/13 05:43:20;;;;;;;5.40;4.03;;;18.70;99.90;;;;;;5036823;28;20077;-65
2022/09/13 05:45:46;;;;;;;6.05;4.35;;;18.70;99.90;;;;;;5036850;28;20500;-64
2022/09/13 05:48:12;;;;;;;9.02;4.68;;;18.70;99.90;;;;;;5036657;28;20025;-64
2022/09/13 05:50:38;;;;;;;7.10;5.18;;;18.70;99.90;;;;;;5036574;28;20056;-65
2022/09/13 05:53:07;;;;;;;10.18;4.85;;;18.80;99.90;;;;;;5050848;28;20595;-65
2022/09/13 05:55:33;;;;;;;7.47;5.15;;;18.80;99.90;;;;;;5047840;28;20045;-65
2022/09/13 05:58:01;;;;;;;8.63;4.82;;;18.90;99.90;;;;;;5051208;28;20033;-65
2022/09/13 06:00:27;;;;;;;6.78;5.32;;;18.80;99.90;;;;;;5052458;28;20060;-65
2022/09/13 06:02:54;;;;;;;6.72;4.88;;;18.90;99.90;;;;;;5053862;28;20104;-67
2022/09/13 06:05:20;;;;;;;8.27;4.43;;;18.90;99.90;;;;;;5047585;28;20585;-64
2022/09/13 06:07:46;;;;;;;11.55;4.15;;;19.00;99.90;;;;;;5047877;28;20132;-67
2022/09/13 06:10:12;;;;;;;4.30;3.90;;;19.00;99.90;;;;;;5048528;28;20045;-65
2022/09/13 06:12:38;;;;;;;6.05;3.85;;;19.00;99.90;;;;;;5053053;28;20174;-69
2022/09/13 06:15:04;;;;;;;6.65;3.83;;;19.00;99.90;;;;;;5053540;28;20120;-69
2022/09/13 06:17:30;;;;;;;8.38;4.10;;;19.00;99.90;;;;;;5053789;28;20500;-65
2022/09/13 06:19:56;;;;;;;6.45;4.07;;;19.00;99.90;;;;;;5052959;28;20076;-65
2022/09/13 06:22:22;;;;;;;9.00;3.65;;;19.10;99.90;;;;;;5054018;28;20101;-66
2022/09/13 06:24:48;;;;;;;7.10;3.22;;;19.10;99.90;;;;;;5054063;28;20124;-67
2022/09/13 06:27:13;;;;;;;4.97;3.58;;;19.10;99.90;;;;;;5053400;28;20594;-66
2022/09/13 06:29:39;;;;;;;8.85;3.80;;;19.10;99.90;;;;;;5053392;28;20427;-70
2022/09/13 06:32:05;;;;;;;8.68;3.88;;;19.20;99.90;;;;;;5053339;28;20044;-69
2022/09/13 06:34:31;;;;;;;9.57;4.47;;;19.40;99.90;;;;;;5053382;28;20461;-65
2022/09/13 06:36:57;;;;;;;9.73;4.10;;;19.70;99.90;;;;;;5054383;28;20044;-70
2022/09/13 06:39:23;;;;;;;7.10;3.95;;;20.00;99.90;;;;;;5055047;28;20040;-70
2022/09/13 06:41:49;;;;;;;5.57;3.67;;;20.00;99.90;;;;;;5051882;28;20048;-69
2022/09/13 06:44:14;;;;;;;3.30;3.00;;;20.20;99.90;;;;;;5051398;28;20048;-65
2022/09/13 06:46:40;;;;;;;5.32;3.53;;;20.10;99.90;;;;;;5053461;28;20076;-66
2022/09/13 06:49:08;;;;;;;5.15;3.30;;;20.10;99.90;;;;;;5053326;28;20044;-70
2022/09/13 06:51:35;;;;;;;3.72;3.20;;;20.10;99.90;;;;;;5052973;28;20041;-70
2022/09/13 06:54:03;;;;;;;6.55;3.70;;;20.10;99.90;;;;;;5054153;28;20033;-65
2022/09/13 06:56:34;;;;;;;5.38;2.88;;;20.30;99.90;;;;;;5053411;28;20045;-67
2022/09/13 06:59:07;;;;;;;3.95;3.20;;;20.60;99.90;;;;;;5054586;28;20052;-65
2022/09/13 07:01:36;;;;;;;4.05;2.95;;;20.70;99.90;;;;;;5054779;28;20133;-65
2022/09/13 07:04:08;;;;;;;4.88;2.72;;;21.00;99.90;;;;;;5053137;28;20068;-65
2022/09/13 07:06:36;;;;;;;4.30;3.35;;;21.10;99.90;;;;;;5053420;28;20045;-65
2022/09/13 07:09:05;;;;;;;3.65;3.03;;;21.10;99.90;;;;;;5052997;28;20052;-65
2022/09/13 07:11:34;;;;;;;5.88;3.65;;;21.10;99.90;;;;;;5044368;28;20052;-65
2022/09/13 07:14:00;;;;;;;3.97;3.28;;;21.10;99.90;;;;;;5064558;28;20028;-65
2022/09/13 07:16:28;;;;;;;3.67;2.67;;;20.90;99.90;;;;;;5053135;28;20045;-66
2022/09/13 07:19:00;;;;;;;4.88;3.50;;;20.70;99.90;;;;;;5052442;28;20050;-65
2022/09/13 07:21:27;;;;;;;4.85;3.25;;;20.90;99.90;;;;;;5052597;28;20583;-70
2022/09/13 07:23:55;;;;;;;10.55;3.95;;;20.60;99.90;;;;;;5050807;28;20025;-66
2022/09/13 07:26:21;;;;;;;5.53;4.00;;;20.50;99.90;;;;;;5052256;28;20102;-66
2022/09/13 07:28:51;;;;;;;5.60;3.70;;;20.40;99.90;;;;;;5032533;28;20067;-65
2022/09/13 07:31:22;;;;;;;6.45;3.70;;;20.40;99.90;;;;;;5032698;28;20501;-65
2022/09/13 07:33:56;;;;;;;4.35;3.60;;;20.50;99.90;;;;;;5032988;28;20465;-68
2022/09/13 07:36:22;;;;;;;5.35;3.67;;;20.50;99.90;;;;;;5033834;28;20055;-69
2022/09/13 07:38:48;;;;;;;7.32;4.00;;;20.60;99.90;;;;;;5034100;28;20076;-66
2022/09/13 07:41:17;;;;;;;5.90;4.05;;;20.50;99.90;;;;;;5032436;28;20056;-71
2022/09/13 07:43:45;;;;;;;8.60;4.53;;;20.50;99.90;;;;;;5032743;28;20432;-66
2022/09/13 07:46:16;;;;;;;4.22;3.67;;;20.50;99.90;;;;;;5032543;28;20037;-66
2022/09/13 07:48:44;;;;;;;4.70;3.60;;;20.60;99.90;;;;;;5038331;28;20464;-65
2022/09/13 07:51:15;;;;;;;5.22;3.88;;;20.60;99.90;;;;;;5074026;28;20045;-65
2022/09/13 07:53:42;;;;;;;4.00;3.58;;;20.70;99.90;;;;;;5072262;28;20044;-65
2022/09/13 07:56:13;;;;;;;6.60;4.30;;;20.60;99.90;;;;;;5071901;28;20086;-65
2022/09/13 07:58:41;;;;;;;6.43;3.50;;;20.70;99.90;;;;;;5072202;28;20045;-65
2022/09/13 08:01:24;;;;;;;7.88;3.85;;;20.90;99.90;;;;;;5071627;28;20407;-65
2022/09/13 08:03:55;;;;;;;6.30;4.05;;;20.80;99.90;;;;;;5072096;28;20036;-65
2022/09/13 08:06:22;;;;;;;6.93;3.42;;;20.80;99.90;;;;;;5072370;28;20085;-65
2022/09/13 08:08:48;;;;;;;6.60;3.78;;;20.80;99.90;;;;;;5072641;28;20036;-66
2022/09/13 08:11:19;;;;;;;5.90;3.88;;;20.80;99.90;;;;;;5073394;28;20182;-66
2022/09/13 08:13:46;;;;;;;5.95;3.70;;;20.70;99.90;;;;;;5072423;28;20036;-70
2022/09/13 08:16:13;;;;;;;3.95;3.38;;;20.80;99.90;;;;;;5071975;28;20536;-70
2022/09/13 08:18:44;;;;;;;6.88;3.75;;;20.80;99.90;;;;;;5070543;28;20522;-70
2022/09/13 08:21:10;;;;;;;5.30;3.67;;;20.80;99.90;;;;;;5071575;28;20049;-70
2022/09/13 08:23:36;;;;;;;4.75;3.45;;;20.80;99.90;;;;;;5071887;28;20043;-71
2022/09/13 08:26:02;;;;;;;5.93;4.00;;;20.80;99.90;;;;;;5072963;28;20040;-70
2022/09/13 08:28:30;;;;;;;9.55;3.75;;;20.80;99.90;;;;;;5072169;28;20090;-65
2022/09/13 08:31:01;;;;;;;6.43;3.65;;;21.00;99.90;;;;;;5072284;28;20036;-66
2022/09/13 08:33:27;;;;;;;9.80;3.85;;;21.30;99.90;;;;;;5073123;28;20093;-65
2022/09/13 08:35:54;;;;;;;5.85;3.40;;;;;;;;;;5059778;28;20049;-65
2022/09/13 08:38:20;;;;;;;5.78;3.65;;;22.30;99.90;;;;;;5052471;28;20048;-71
2022/09/13 08:40:55;;;;;;;8.05;3.85;;;22.60;99.90;;;;;;5052688;28;20409;-65
2022/09/13 08:43:50;;;;;;;6.50;4.03;;;22.80;99.90;;;;;;5051423;28;20041;-71
2022/09/13 08:46:24;;;;;;;5.90;3.38;;;22.30;99.90;;;;;;5053026;28;20045;-71
2022/09/13 08:48:53;;;;;;;5.00;3.72;;;22.10;99.90;;;;;;5051819;28;20415;-72
2022/09/13 08:51:29;;;;;;;5.25;3.75;;;22.00;99.90;;;;;;5051582;28;20121;-68
2022/09/13 08:53:56;;;;;;;5.20;3.92;;;22.00;99.90;;;;;;5053549;28;20048;-69
2022/09/13 08:56:28;;;;;;;3.83;3.28;;;22.00;99.90;;;;;;5053715;28;20091;-66
2022/09/13 08:59:17;;;;;;;5.85;3.50;;;21.90;99.90;;;;;;5053271;28;20480;-70
2022/09/13 09:02:07;;;;;;;4.50;3.65;;;22.00;99.90;;;;;;5051903;28;20060;-66
2022/09/13 09:04:49;;;;;;;4.88;3.63;;;22.10;99.90;;;;;;5053528;28;20075;-66
2022/09/13 09:07:22;;;;;;;7.43;3.70;;;22.40;99.90;;;;;;5053528;28;20621;-72
2022/09/13 09:10:16;;;;;;;5.70;4.18;;;22.40;99.90;;;;;;5053445;28;20041;-66
2022/09/13 09:12:44;;;;;;;4.95;4.07;;;22.60;99.90;;;;;;5049539;28;20037;-71
2022/09/13 09:15:16;;;;;;;8.00;4.38;;;22.70;99.90;;;;;;5054891;28;20076;-71
2022/09/13 09:17:54;;;;;;;10.07;3.40;;;22.70;99.90;;;;;;5056116;28;20032;-71
2022/09/13 09:20:26;;;;;;;6.13;4.10;;;22.70;99.90;;;;;;5055734;28;20485;-71
2022/09/13 09:22:54;;;;;;;3.83;3.40;;;22.70;99.90;;;;;;5055579;28;20450;-71
2022/09/13 09:25:23;;;;;;;4.45;3.35;;;23.10;99.90;;;;;;5056568;28;20094;-67
2022/09/13 09:27:50;;;;;;;7.60;3.08;;;23.40;99.90;;;;;;5057092;28;20094;-70
2022/09/13 09:30:16;;;;;;;6.15;3.75;;;23.30;99.90;;;;;;5054878;28;20450;-71
2022/09/13 09:33:07;;;;;;;5.45;3.40;;;23.20;99.90;;;;;;5055280;28;20036;-66
2022/09/13 09:35:54;;;;;;;8.30;3.63;;;23.30;99.90;;;;;;5054930;28;20048;-71
2022/09/13 09:38:24;;;;;;;9.02;4.03;;;23.50;99.90;;;;;;5054740;28;20419;-72
2022/09/13 09:40:50;;;;;;;5.50;3.73;;;;;;;;;;5058214;28;20469;-67
2022/09/13 09:43:32;;;;;;;4.60;3.10;;;23.70;99.90;;;;;;5074610;28;20040;-71
2022/09/13 09:46:01;;;;;;;5.30;3.90;;;23.80;99.90;;;;;;5074215;28;20038;-70
2022/09/13 09:48:41;;;;;;;6.22;3.28;;;23.80;99.90;;;;;;5074811;28;20044;-69
2022/09/13 09:51:09;;;;;;;3.42;2.85;;;23.70;99.90;;;;;;5074390;28;20045;-71
2022/09/13 09:53:43;;;;;;;4.47;3.25;;;23.70;99.90;;;;;;5074712;28;20387;-71
2022/09/13 09:56:22;;;;;;;6.15;3.25;;;23.80;99.90;;;;;;5074327;28;20070;-71
2022/09/13 09:58:49;;;;;;;2.90;2.60;;;23.80;99.90;;;;;;5073190;28;20408;-71
2022/09/13 10:01:34;;;;;;;3.92;2.95;;;23.70;99.90;;;;;;5075467;28;20487;-72
2022/09/13 10:04:18;;;;;;;5.97;3.60;;;23.90;99.90;;;;;;5073990;28;20392;-69
2022/09/13 10:06:45;;;;;;;3.90;3.10;;;23.90;99.90;;;;;;5055123;28;20056;-71
2022/09/13 10:09:20;;;;;;;5.35;3.13;;;23.90;99.90;;;;;;5055006;28;20067;-68
2022/09/13 10:11:57;;;;;;;8.70;3.20;;;24.10;99.90;;;;;;5056409;28;20049;-69
2022/09/13 10:14:34;;;;;;;5.32;3.38;;;24.30;99.90;;;;;;5056157;28;20029;-69
2022/09/13 10:17:17;;;;;;;3.55;2.92;;;24.50;99.90;;;;;;5056077;28;20048;-70
2022/09/13 10:19:57;;;;;;;6.93;3.95;;;24.60;99.90;;;;;;5056132;28;20032;-69
2022/09/13 10:22:25;;;;;;;5.13;3.65;;;24.80;99.90;;;;;;5054339;28;20135;-69
2022/09/13 10:24:52;;;;;;;5.80;3.03;;;24.80;99.90;;;;;;5053860;28;20072;-68
2022/09/13 10:27:46;;;;;;;7.05;3.72;;;24.90;99.90;;;;;;5053820;28;20080;-66
2022/09/13 10:30:27;;;;;;;4.03;3.03;;;25.00;99.90;;;;;;5053724;28;20189;-71
2022/09/13 10:32:57;;;;;;;3.80;3.40;;;25.50;99.90;;;;;;5054131;28;20044;-67
2022/09/13 10:35:23;;;;;;;5.73;3.30;;;25.10;99.90;;;;;;5052810;28;20496;-69
2022/09/13 10:37:50;;;;;;;6.18;2.65;;;25.60;99.90;;;;;;5053560;28;20263;-70
2022/09/13 10:40:22;;;;;;;5.05;2.42;;;25.50;99.90;;;;;;5053205;28;20618;-71
2022/09/13 10:42:56;;;;;;;6.07;2.92;;;;;;;;;;5068355;28;20037;-71
2022/09/13 10:45:24;;;;;;;6.80;3.28;;;26.30;99.90;;;;;;5055790;28;20033;-70
2022/09/13 10:47:54;;;;;;;4.38;3.50;;;26.20;99.90;;;;;;5052629;28;20165;-69
2022/09/13 10:50:26;;;;;;;7.97;3.00;;;26.50;99.90;;;;;;5035687;28;20084;-70
2022/09/13 10:52:54;;;;;;;3.67;2.40;;;27.10;99.90;;;;;;5033674;28;20050;-71
2022/09/13 10:55:24;;;;;;;3.33;2.20;;;27.10;99.90;;;;;;5035362;28;20044;-71
2022/09/13 10:58:00;;;;;;;7.72;2.63;;;27.10;99.90;;;;;;5035575;28;20040;-66
2022/09/13 11:00:41;;;;;;;4.22;2.13;;;26.70;99.90;;;;;;5035375;28;20075;-72
2022/09/13 11:03:25;;;;;;;3.70;2.10;;;26.50;99.90;;;;;;5035360;28;20041;-70
2022/09/13 11:06:48;;;;;;;2.17;1.98;;;26.90;99.90;;;;;;5035395;28;20037;-66
2022/09/13 11:09:29;;;;;;;5.18;2.55;;;26.70;99.90;;;;;;4974146;28;20038;-66
2022/09/13 11:12:10;;;;;;;3.63;2.08;;;26.80;99.90;;;;;;4974371;28;20478;-66
2022/09/13 11:15:01;;;;;;;2.70;2.13;;;26.90;99.90;;;;;;5021845;28;20477;-67
2022/09/13 11:17:50;;;;;;;2.88;2.20;;;27.50;99.90;;;;;;5035142;28;20477;-69
2022/09/13 11:20:23;;;;;;;3.75;2.30;;;27.50;99.90;;;;;;5035021;28;20043;-71
2022/09/13 11:23:04;;;;;;;4.03;2.10;;;27.00;99.90;;;;;;5034910;28;20084;-68
2022/09/13 11:25:47;;;;;;;6.18;2.33;;;26.80;99.90;;;;;;5035094;28;20033;-72
2022/09/13 11:28:52;;;;;;;6.13;2.20;;;26.50;99.90;;;;;;5034864;28;20044;-66
2022/09/13 11:31:43;;;;;;;2.30;2.10;;;26.30;99.90;;;;;;5034772;28;20087;-72
2022/09/13 11:34:27;;;;;;;2.67;2.03;;;26.30;99.90;;;;;;5034602;28;20107;-71
2022/09/13 11:37:30;;;;;;;2.80;2.10;;;26.30;99.90;;;;;;5034037;28;20060;-66
2022/09/13 11:40:27;;;;;;;5.68;2.53;;;26.20;99.90;;;;;;5040793;28;20040;-66
2022/09/13 11:43:12;;;;;;;2.58;1.95;;;26.30;99.90;;;;;;5052281;28;20053;-71
2022/09/13 11:46:13;;;;;;;2.10;1.90;;;26.60;99.90;;;;;;5053492;28;20090;-70
2022/09/13 11:48:54;;;;;;;2.58;1.55;;;26.50;99.90;;;;;;5054656;28;20068;-66
2022/09/13 11:51:32;;;;;;;3.75;1.88;;;26.50;99.90;;;;;;5054622;28;20496;-71
2022/09/13 11:54:10;;;;;;;2.80;2.03;;;26.50;99.90;;;;;;5054450;28;20049;-71
2022/09/13 11:56:43;;;;;;;3.45;2.40;;;26.30;99.90;;;;;;5054397;28;20037;-72
2022/09/13 11:59:33;;;;;;;4.65;2.00;;;26.30;99.90;;;;;;5054369;28;20086;-71
2022/09/13 12:02:04;;;;;;;10.88;2.03;;;26.30;99.90;;;;;;5054514;28;20562;-70
2022/09/13 12:04:44;;;;;;;5.82;1.70;;;26.40;99.90;;;;;;5054278;28;20045;-71
2022/09/13 12:07:18;;;;;;;6.47;2.28;;;26.50;99.90;;;;;;5054329;28;20075;-71
2022/09/13 12:10:00;;;;;;;2.25;1.92;;;26.70;99.90;;;;;;5054020;28;20063;-72
2022/09/13 12:12:31;;;;;;;3.10;2.25;;;26.70;99.90;;;;;;5054068;28;20041;-72
2022/09/13 12:15:12;;;;;;;2.15;1.73;;;26.80;99.90;;;;;;5054193;28;20511;-68
2022/09/13 12:17:45;;;;;;;2.60;1.88;;;26.80;99.90;;;;;;5054046;28;20033;-71
2022/09/13 12:20:20;;;;;;;3.22;2.05;;;27.00;99.90;;;;;;5053727;28;20048;-71
2022/09/13 12:22:48;;;;;;;3.13;1.98;;;27.10;99.90;;;;;;5054040;28;20408;-66
2022/09/13 12:25:27;;;;;;;7.28;1.98;;;27.10;99.90;;;;;;5054121;28;20400;-67
2022/09/13 12:28:21;;;;;;;6.72;2.17;;;27.20;99.90;;;;;;5054010;28;20045;-67
2022/09/13 12:30:54;;;;;;;4.47;1.92;;;27.30;99.90;;;;;;5053879;28;20484;-66
2022/09/13 12:33:20;;;;;;;6.07;2.08;;;27.30;99.90;;;;;;5054042;28;20068;-67
2022/09/13 12:36:00;;;;;;;2.90;1.85;;;27.20;99.90;;;;;;5053939;28;20037;-66
2022/09/13 12:39:03;;;;;;;4.27;1.90;;;27.40;99.90;;;;;;5052618;28;20373;-66
2022/09/13 12:41:56;;;;;;;9.20;2.78;;;27.50;99.90;;;;;;5053927;28;20110;-69
2022/09/13 12:44:37;;;;;;;3.05;1.70;;;27.40;99.90;;;;;;5053885;28;20066;-66
2022/09/13 12:47:21;;;;;;;2.03;1.80;;;27.60;99.90;;;;;;5053770;28;20051;-70
2022/09/13 12:50:22;;;;;;;4.22;1.80;;;27.00;99.90;;;;;;5056969;28;20408;-72
2022/09/13 12:52:57;;;;;;;3.80;1.90;;;26.90;99.90;;;;;;5052098;28;20067;-67
2022/09/13 12:55:41;;;;;;;7.07;1.85;;;26.80;99.90;;;;;;5057843;28;20557;-66
2022/09/13 12:58:21;;;;;;;4.55;1.60;;;26.60;99.90;;;;;;5057798;28;20120;-71
2022/09/13 13:01:18;;;;;;;5.60;1.80;;;26.50;99.90;;;;;;5057632;28;20076;-71
2022/09/13 13:04:00;;;;;;;5.57;1.75;;;26.40;99.90;;;;;;5057494;28;20045;-71
2022/09/13 13:06:36;;;;;;;2.72;1.73;;;26.40;99.90;;;;;;5057638;28;20040;-71
2022/09/13 13:10:03;;;;;;;4.18;2.00;;;26.50;99.90;;;;;;5057697;28;20043;-72
2022/09/13 13:12:31;;;;;;;3.55;1.90;;;26.60;99.90;;;;;;5013261;28;20040;-71
2022/09/13 13:14:59;;;;;;;2.58;1.77;;;26.60;99.90;;;;;;5056798;28;20033;-71
2022/09/13 13:17:38;;;;;;;4.25;1.65;;;26.50;99.90;;;;;;5055495;28;20067;-70
2022/09/13 13:20:41;;;;;;;1.92;1.70;;;26.50;99.90;;;;;;5057288;28;20045;-71
2022/09/13 13:23:40;;;;;;;3.92;1.80;;;26.60;99.90;;;;;;5057281;28;20071;-72